Terminal Aerodrome Forecast
Issued by NWS Louisville, KY

Home | Current Version | Previous Version | Text Only | Print | Product List | Glossary On
Versions: 1 2 3 4 5 6 7 8 9 10 11 12 13 14
679
FTUS43 KLMK 131720
TAFLEX
TAF
KLEX 131720Z 1318/1418 34008KT P6SM SCT030
     FM140400 06005KT P6SM BKN120
     FM141400 12008KT P6SM -SN BKN040=

USA.gov is the U.S. government's official web portal to all federal, state and local government web resources and services.